sensor_id;sensor_type;location;lat;lon;timestamp;pressure;altitude;pressure_sealevel;temperature;humidity
63493;BME280;49638;47.526;10.028;2023-02-28T00:02:46;91702.22;;;-4.79;86.39
63493;BME280;49638;47.526;10.028;2023-02-28T00:05:47;91705.63;;;-4.78;86.07
63493;BME280;49638;47.526;10.028;2023-02-28T00:08:47;91686.06;;;-4.89;86.29
63493;BME280;49638;47.526;10.028;2023-02-28T00:11:48;91686.06;;;-4.89;86.38
63493;BME280;49638;47.526;10.028;2023-02-28T00:14:48;91705.03;;;-4.90;86.22
63493;BME280;49638;47.526;10.028;2023-02-28T00:17:49;91690.03;;;-4.94;86.53
63493;BME280;49638;47.526;10.028;2023-02-28T00:20:49;91694.00;;;-4.82;86.59
63493;BME280;49638;47.526;10.028;2023-02-28T00:23:50;91699.16;;;-4.82;86.56
63493;BME280;49638;47.526;10.028;2023-02-28T00:26:50;91681.03;;;-4.90;86.09
63493;BME280;49638;47.526;10.028;2023-02-28T00:29:50;91696.03;;;-4.86;85.74
63493;BME280;49638;47.526;10.028;2023-02-28T00:32:50;91683.38;;;-5.05;85.48
63493;BME280;49638;47.526;10.028;2023-02-28T00:35:51;91683.69;;;-5.08;86.18
63493;BME280;49638;47.526;10.028;2023-02-28T00:38:51;91694.03;;;-5.00;86.09
63493;BME280;49638;47.526;10.028;2023-02-28T00:41:52;91688.53;;;-5.05;85.88
63493;BME280;49638;47.526;10.028;2023-02-28T00:44:52;91700.31;;;-5.03;86.61
63493;BME280;49638;47.526;10.028;2023-02-28T00:47:52;91696.91;;;-5.03;85.79
63493;BME280;49638;47.526;10.028;2023-02-28T00:50:52;91683.97;;;-5.11;85.95
63493;BME280;49638;47.526;10.028;2023-02-28T00:53:53;91688.47;;;-5.13;85.86
63493;BME280;49638;47.526;10.028;2023-02-28T00:56:54;91681.78;;;-5.24;85.87
63493;BME280;49638;47.526;10.028;2023-02-28T00:59:54;91676.13;;;-5.28;85.82
63493;BME280;49638;47.526;10.028;2023-02-28T01:02:54;91685.84;;;-5.21;85.77
63493;BME280;49638;47.526;10.028;2023-02-28T01:05:54;91690.94;;;-5.30;85.18
63493;BME280;49638;47.526;10.028;2023-02-28T01:08:55;91687.69;;;-5.32;85.59
63493;BME280;49638;47.526;10.028;2023-02-28T01:11:55;91690.09;;;-5.30;85.89
63493;BME280;49638;47.526;10.028;2023-02-28T01:14:55;91682.53;;;-5.32;85.91
63493;BME280;49638;47.526;10.028;2023-02-28T01:17:55;91683.81;;;-5.36;86.03
63493;BME280;49638;47.526;10.028;2023-02-28T01:20:56;91676.44;;;-5.31;86.32
63493;BME280;49638;47.526;10.028;2023-02-28T01:23:57;91669.91;;;-5.43;86.23
63493;BME280;49638;47.526;10.028;2023-02-28T01:26:58;91684.41;;;-5.42;86.14
63493;BME280;49638;47.526;10.028;2023-02-28T01:29:58;91670.63;;;-5.51;86.12
63493;BME280;49638;47.526;10.028;2023-02-28T01:32:59;91682.72;;;-5.51;85.41
63493;BME280;49638;47.526;10.028;2023-02-28T01:36:05;91679.34;;;-5.69;84.42
63493;BME280;49638;47.526;10.028;2023-02-28T01:39:05;91668.22;;;-5.96;85.03
63493;BME280;49638;47.526;10.028;2023-02-28T01:42:08;91682.34;;;-5.92;85.72
63493;BME280;49638;47.526;10.028;2023-02-28T01:45:23;91679.78;;;-5.92;84.57
63493;BME280;49638;47.526;10.028;2023-02-28T01:48:31;91673.69;;;-6.09;84.23
63493;BME280;49638;47.526;10.028;2023-02-28T01:51:38;91676.19;;;-6.17;84.87
63493;BME280;49638;47.526;10.028;2023-02-28T01:54:38;91677.00;;;-6.16;85.67
63493;BME280;49638;47.526;10.028;2023-02-28T01:57:45;91658.50;;;-6.20;85.50
63493;BME280;49638;47.526;10.028;2023-02-28T02:00:46;91663.41;;;-6.27;84.92
63493;BME280;49638;47.526;10.028;2023-02-28T02:03:53;91654.63;;;-6.52;84.81
63493;BME280;49638;47.526;10.028;2023-02-28T02:06:55;91664.19;;;-6.44;85.47
63493;BME280;49638;47.526;10.028;2023-02-28T02:10:18;91681.38;;;-6.45;84.60
63493;BME280;49638;47.526;10.028;2023-02-28T02:16:51;91673.44;;;-6.51;86.11
63493;BME280;49638;47.526;10.028;2023-02-28T02:23:51;91674.19;;;-6.41;85.96
63493;BME280;49638;47.526;10.028;2023-02-28T02:27:08;91679.97;;;-6.39;85.77
63493;BME280;49638;47.526;10.028;2023-02-28T02:30:46;91674.19;;;-6.41;85.38
63493;BME280;49638;47.526;10.028;2023-02-28T02:40:56;91662.84;;;-6.48;85.21
63493;BME280;49638;47.526;10.028;2023-02-28T02:45:22;91680.97;;;-6.50;86.17
63493;BME280;49638;47.526;10.028;2023-02-28T02:47:56;91672.63;;;-6.52;85.58
63493;BME280;49638;47.526;10.028;2023-02-28T02:51:01;91678.56;;;-6.51;84.72
63493;BME280;49638;47.526;10.028;2023-02-28T02:54:08;91670.97;;;-6.53;85.52
63493;BME280;49638;47.526;10.028;2023-02-28T02:57:15;91659.41;;;-6.67;84.58
63493;BME280;49638;47.526;10.028;2023-02-28T03:00:25;91671.72;;;-6.60;85.57
63493;BME280;49638;47.526;10.028;2023-02-28T03:03:27;91687.53;;;-6.55;85.68
63493;BME280;49638;47.526;10.028;2023-02-28T03:06:29;91673.72;;;-6.54;85.38
63493;BME280;49638;47.526;10.028;2023-02-28T03:09:33;91684.50;;;-6.51;85.38
63493;BME280;49638;47.526;10.028;2023-02-28T03:12:41;91685.59;;;-6.53;85.48
63493;BME280;49638;47.526;10.028;2023-02-28T03:15:56;91682.78;;;-6.60;85.96
63493;BME280;49638;47.526;10.028;2023-02-28T03:22:50;91675.94;;;-6.69;85.60
63493;BME280;49638;47.526;10.028;2023-02-28T03:26:09;91689.03;;;-6.62;86.09
63493;BME280;49638;47.526;10.028;2023-02-28T03:29:42;91687.81;;;-6.58;86.26
63493;BME280;49638;47.526;10.028;2023-02-28T03:32:54;91674.19;;;-6.69;85.34
63493;BME280;49638;47.526;10.028;2023-02-28T03:36:00;91675.13;;;-6.70;86.31
63493;BME280;49638;47.526;10.028;2023-02-28T03:39:05;91677.84;;;-6.71;85.67
63493;BME280;49638;47.526;10.028;2023-02-28T03:42:14;91677.31;;;-6.75;85.90
63493;BME280;49638;47.526;10.028;2023-02-28T03:45:21;91671.75;;;-6.70;86.13
63493;BME280;49638;47.526;10.028;2023-02-28T03:48:51;91676.09;;;-6.71;85.38
63493;BME280;49638;47.526;10.028;2023-02-28T03:51:54;91674.31;;;-6.70;86.01
63493;BME280;49638;47.526;10.028;2023-02-28T03:55:00;91680.03;;;-6.76;85.90
63493;BME280;49638;47.526;10.028;2023-02-28T03:58:14;91699.72;;;-6.67;85.38
63493;BME280;49638;47.526;10.028;2023-02-28T04:01:27;91698.94;;;-6.68;85.39
63493;BME280;49638;47.526;10.028;2023-02-28T04:04:30;91687.03;;;-6.69;86.11
63493;BME280;49638;47.526;10.028;2023-02-28T04:07:31;91703.88;;;-6.56;86.25
63493;BME280;49638;47.526;10.028;2023-02-28T04:10:32;91705.88;;;-6.50;86.56
63493;BME280;49638;47.526;10.028;2023-02-28T04:13:32;91701.03;;;-6.53;86.51
63493;BME280;49638;47.526;10.028;2023-02-28T04:16:36;91705.59;;;-6.47;86.76
63493;BME280;49638;47.526;10.028;2023-02-28T04:19:37;91702.06;;;-6.46;86.49
63493;BME280;49638;47.526;10.028;2023-02-28T04:22:37;91698.19;;;-6.50;86.32
63493;BME280;49638;47.526;10.028;2023-02-28T04:25:37;91684.13;;;-6.56;86.66
63493;BME280;49638;47.526;10.028;2023-02-28T04:28:40;91694.13;;;-6.53;86.54
63493;BME280;49638;47.526;10.028;2023-02-28T04:31:40;91697.88;;;-6.47;86.63
63493;BME280;49638;47.526;10.028;2023-02-28T04:34:40;91697.88;;;-6.47;85.84
63493;BME280;49638;47.526;10.028;2023-02-28T04:37:41;91703.13;;;-6.39;85.79
63493;BME280;49638;47.526;10.028;2023-02-28T04:40:41;91706.09;;;-6.34;85.49
63493;BME280;49638;47.526;10.028;2023-02-28T04:43:42;91714.00;;;-6.45;84.31
63493;BME280;49638;47.526;10.028;2023-02-28T04:46:43;91717.94;;;-6.51;84.95
63493;BME280;49638;47.526;10.028;2023-02-28T04:49:43;91717.13;;;-6.51;85.40
63493;BME280;49638;47.526;10.028;2023-02-28T04:52:44;91704.88;;;-6.67;85.30
63493;BME280;49638;47.526;10.028;2023-02-28T04:55:44;91714.34;;;-6.68;85.34
63493;BME280;49638;47.526;10.028;2023-02-28T04:58:46;91729.97;;;-6.51;85.09
63493;BME280;49638;47.526;10.028;2023-02-28T05:01:48;91713.50;;;-6.58;84.70
63493;BME280;49638;47.526;10.028;2023-02-28T05:04:49;91717.28;;;-6.62;84.91
63493;BME280;49638;47.526;10.028;2023-02-28T05:07:49;91716.91;;;-6.68;84.99
63493;BME280;49638;47.526;10.028;2023-02-28T05:10:49;91728.69;;;-6.65;84.27
63493;BME280;49638;47.526;10.028;2023-02-28T05:13:50;91672.53;;;-6.97;84.19
63493;BME280;49638;47.526;10.028;2023-02-28T05:16:51;91710.03;;;-6.77;84.84
63493;BME280;49638;47.526;10.028;2023-02-28T05:19:51;91703.09;;;-6.94;83.97
63493;BME280;49638;47.526;10.028;2023-02-28T05:22:51;91705.00;;;-6.96;84.35
63493;BME280;49638;47.526;10.028;2023-02-28T05:25:52;91707.56;;;-6.96;85.29
63493;BME280;49638;47.526;10.028;2023-02-28T05:28:53;91731.31;;;-6.84;84.80
63493;BME280;49638;47.526;10.028;2023-02-28T05:31:53;91718.91;;;-6.99;85.15
63493;BME280;49638;47.526;10.028;2023-02-28T05:34:54;91719.63;;;-7.06;85.44
63493;BME280;49638;47.526;10.028;2023-02-28T05:37:54;91724.88;;;-6.98;85.79
63493;BME280;49638;47.526;10.028;2023-02-28T05:40:54;91731.50;;;-6.96;86.36
63493;BME280;49638;47.526;10.028;2023-02-28T05:43:55;91715.03;;;-7.03;86.94
63493;BME280;49638;47.526;10.028;2023-02-28T05:46:55;91739.03;;;-6.94;87.39
63493;BME280;49638;47.526;10.028;2023-02-28T05:49:55;91735.66;;;-6.95;86.88
63493;BME280;49638;47.526;10.028;2023-02-28T05:52:56;91737.81;;;-6.90;87.69
63493;BME280;49638;47.526;10.028;2023-02-28T05:55:56;91744.00;;;-6.83;87.28
63493;BME280;49638;47.526;10.028;2023-02-28T05:58:57;91746.03;;;-6.86;87.38
63493;BME280;49638;47.526;10.028;2023-02-28T06:01:57;91749.16;;;-6.83;87.45
63493;BME280;49638;47.526;10.028;2023-02-28T06:04:58;91733.88;;;-6.84;87.13
63493;BME280;49638;47.526;10.028;2023-02-28T06:07:58;91739.00;;;-6.75;87.53
63493;BME280;49638;47.526;10.028;2023-02-28T06:11:03;91746.81;;;-6.67;88.39
63493;BME280;49638;47.526;10.028;2023-02-28T06:14:04;91748.38;;;-6.56;87.05
63493;BME280;49638;47.526;10.028;2023-02-28T06:17:04;91746.09;;;-6.59;86.29
63493;BME280;49638;47.526;10.028;2023-02-28T06:20:05;91747.31;;;-6.63;86.05
63493;BME280;49638;47.526;10.028;2023-02-28T06:23:06;91756.81;;;-6.63;85.97
63493;BME280;49638;47.526;10.028;2023-02-28T06:26:06;91764.66;;;-6.65;86.33
63493;BME280;49638;47.526;10.028;2023-02-28T06:29:06;91747.59;;;-6.66;85.98
63493;BME280;49638;47.526;10.028;2023-02-28T06:32:07;91754.88;;;-6.52;85.59
63493;BME280;49638;47.526;10.028;2023-02-28T06:35:07;91762.16;;;-6.47;86.13
63493;BME280;49638;47.526;10.028;2023-02-28T06:38:08;91775.63;;;-6.35;85.91
63493;BME280;49638;47.526;10.028;2023-02-28T06:41:09;91773.06;;;-6.35;85.66
63493;BME280;49638;47.526;10.028;2023-02-28T06:44:16;91785.25;;;-6.28;85.77
63493;BME280;49638;47.526;10.028;2023-02-28T06:47:17;91785.53;;;-6.31;84.59
63493;BME280;49638;47.526;10.028;2023-02-28T06:50:17;91788.63;;;-6.27;85.26
63493;BME280;49638;47.526;10.028;2023-02-28T06:53:20;91778.09;;;-6.34;84.79
63493;BME280;49638;47.526;10.028;2023-02-28T06:56:21;91789.50;;;-6.19;84.78
63493;BME280;49638;47.526;10.028;2023-02-28T06:59:21;91791.75;;;-6.06;84.57
63493;BME280;49638;47.526;10.028;2023-02-28T07:02:21;91792.22;;;-5.92;84.98
63493;BME280;49638;47.526;10.028;2023-02-28T07:05:22;91785.16;;;-5.90;83.88
63493;BME280;49638;47.526;10.028;2023-02-28T07:08:23;91807.53;;;-5.73;82.95
63493;BME280;49638;47.526;10.028;2023-02-28T07:11:26;91781.28;;;-5.77;83.26
63493;BME280;49638;47.526;10.028;2023-02-28T07:14:27;91803.09;;;-5.53;83.48
63493;BME280;49638;47.526;10.028;2023-02-28T07:17:27;91807.00;;;-5.49;82.89
63493;BME280;49638;47.526;10.028;2023-02-28T07:20:27;91807.44;;;-5.36;82.28
63493;BME280;49638;47.526;10.028;2023-02-28T07:23:27;91802.00;;;-5.33;82.18
63493;BME280;49638;47.526;10.028;2023-02-28T07:26:28;91801.84;;;-5.31;82.02
63493;BME280;49638;47.526;10.028;2023-02-28T07:29:28;91808.59;;;-5.30;81.23
63493;BME280;49638;47.526;10.028;2023-02-28T07:32:28;91788.75;;;-5.38;81.96
63493;BME280;49638;47.526;10.028;2023-02-28T07:35:29;91811.41;;;-5.24;81.89
63493;BME280;49638;47.526;10.028;2023-02-28T07:38:30;91818.03;;;-5.21;81.64
63493;BME280;49638;47.526;10.028;2023-02-28T07:41:30;91808.41;;;-5.19;81.78
63493;BME280;49638;47.526;10.028;2023-02-28T07:44:33;91811.72;;;-5.09;81.90
63493;BME280;49638;47.526;10.028;2023-02-28T07:47:34;91813.53;;;-5.01;81.00
63493;BME280;49638;47.526;10.028;2023-02-28T07:50:34;91802.19;;;-4.90;81.02
63493;BME280;49638;47.526;10.028;2023-02-28T07:53:35;91809.84;;;-4.81;80.55
63493;BME280;49638;47.526;10.028;2023-02-28T07:56:35;91808.44;;;-4.75;80.23
63493;BME280;49638;47.526;10.028;2023-02-28T07:59:35;91807.94;;;-4.79;80.16
63493;BME280;49638;47.526;10.028;2023-02-28T08:02:36;91818.28;;;-4.70;80.00
63493;BME280;49638;47.526;10.028;2023-02-28T08:05:39;91810.81;;;-4.82;79.76
63493;BME280;49638;47.526;10.028;2023-02-28T08:08:40;91821.91;;;-4.81;77.13
63493;BME280;49638;47.526;10.028;2023-02-28T08:11:40;91814.31;;;-4.83;79.92
63493;BME280;49638;47.526;10.028;2023-02-28T08:14:40;91827.13;;;-4.73;80.43
63493;BME280;49638;47.526;10.028;2023-02-28T08:17:40;91833.59;;;-4.69;80.02
63493;BME280;49638;47.526;10.028;2023-02-28T08:20:41;91821.03;;;-4.72;80.58
63493;BME280;49638;47.526;10.028;2023-02-28T08:23:41;91823.28;;;-4.69;80.30
63493;BME280;49638;47.526;10.028;2023-02-28T08:26:42;91844.03;;;-4.53;80.28
63493;BME280;49638;47.526;10.028;2023-02-28T08:29:42;91834.53;;;-4.52;80.14
63493;BME280;49638;47.526;10.028;2023-02-28T08:32:42;91837.00;;;-4.42;79.99
63493;BME280;49638;47.526;10.028;2023-02-28T08:35:43;91839.81;;;-4.36;80.03
63493;BME280;49638;47.526;10.028;2023-02-28T08:38:43;91853.81;;;-4.12;79.71
63493;BME280;49638;47.526;10.028;2023-02-28T08:41:43;91838.50;;;-4.14;79.84
63493;BME280;49638;47.526;10.028;2023-02-28T08:44:44;91855.56;;;-3.87;79.55
63493;BME280;49638;47.526;10.028;2023-02-28T08:47:44;91846.25;;;-3.79;79.62
63493;BME280;49638;47.526;10.028;2023-02-28T08:51:10;91855.22;;;-3.58;79.00
63493;BME280;49638;47.526;10.028;2023-02-28T08:54:11;91861.66;;;-3.53;79.05
63493;BME280;49638;47.526;10.028;2023-02-28T08:57:16;91854.59;;;-3.51;79.61
63493;BME280;49638;47.526;10.028;2023-02-28T09:00:16;91846.53;;;-3.48;79.73
63493;BME280;49638;47.526;10.028;2023-02-28T09:03:17;91861.91;;;-3.30;79.14
63493;BME280;49638;47.526;10.028;2023-02-28T09:06:18;91855.63;;;-3.28;79.24
63493;BME280;49638;47.526;10.028;2023-02-28T09:09:19;91842.72;;;-3.28;79.30
63493;BME280;49638;47.526;10.028;2023-02-28T09:12:23;91859.25;;;-3.04;79.13
63493;BME280;49638;47.526;10.028;2023-02-28T09:15:24;91850.06;;;-2.99;79.13
63493;BME280;49638;47.526;10.028;2023-02-28T09:18:25;91862.66;;;-2.79;79.42
63493;BME280;49638;47.526;10.028;2023-02-28T09:21:26;91868.03;;;-2.65;78.77
63493;BME280;49638;47.526;10.028;2023-02-28T09:24:27;91864.63;;;-2.73;78.37
63493;BME280;49638;47.526;10.028;2023-02-28T09:27:27;91868.81;;;-2.72;78.29
63493;BME280;49638;47.526;10.028;2023-02-28T09:30:28;91869.31;;;-2.60;78.31
63493;BME280;49638;47.526;10.028;2023-02-28T09:33:28;91874.03;;;-2.48;78.55
63493;BME280;49638;47.526;10.028;2023-02-28T09:36:29;91856.06;;;-2.49;78.66
63493;BME280;49638;47.526;10.028;2023-02-28T09:39:29;91850.72;;;-2.40;77.70
63493;BME280;49638;47.526;10.028;2023-02-28T09:42:32;91858.00;;;-2.35;77.34
63493;BME280;49638;47.526;10.028;2023-02-28T09:45:36;91859.31;;;-2.31;76.64
63493;BME280;49638;47.526;10.028;2023-02-28T09:48:41;91863.81;;;-2.25;77.01
63493;BME280;49638;47.526;10.028;2023-02-28T09:51:56;91850.56;;;-2.30;75.32
63493;BME280;49638;47.526;10.028;2023-02-28T09:55:28;91865.94;;;-2.20;74.71
63493;BME280;49638;47.526;10.028;2023-02-28T09:58:44;91844.72;;;-2.32;76.33
63493;BME280;49638;47.526;10.028;2023-02-28T10:05:04;91871.09;;;-2.20;76.21
63493;BME280;49638;47.526;10.028;2023-02-28T10:08:37;91877.22;;;-2.21;74.22
63493;BME280;49638;47.526;10.028;2023-02-28T10:11:43;91871.75;;;-2.10;77.58
63493;BME280;49638;47.526;10.028;2023-02-28T10:14:46;91862.81;;;-2.07;77.74
63493;BME280;49638;47.526;10.028;2023-02-28T10:17:54;91872.34;;;-1.83;77.56
63493;BME280;49638;47.526;10.028;2023-02-28T10:20:56;91886.56;;;-1.71;77.27
63493;BME280;49638;47.526;10.028;2023-02-28T10:24:29;91882.00;;;-1.61;75.55
63493;BME280;49638;47.526;10.028;2023-02-28T10:27:31;91859.00;;;-1.64;76.52
63493;BME280;49638;47.526;10.028;2023-02-28T10:30:32;91883.56;;;-1.44;75.42
63493;BME280;49638;47.526;10.028;2023-02-28T10:33:34;91886.13;;;-1.35;75.13
63493;BME280;49638;47.526;10.028;2023-02-28T10:36:35;91883.69;;;-1.37;75.26
63493;BME280;49638;47.526;10.028;2023-02-28T10:39:45;91889.06;;;-1.38;72.67
63493;BME280;49638;47.526;10.028;2023-02-28T10:42:59;91882.09;;;-1.46;73.22
63493;BME280;49638;47.526;10.028;2023-02-28T10:49:11;91854.97;;;-1.75;74.57
63493;BME280;49638;47.526;10.028;2023-02-28T10:52:12;91886.19;;;-1.52;75.15
63493;BME280;49638;47.526;10.028;2023-02-28T10:55:23;91890.22;;;-1.49;73.81
63493;BME280;49638;47.526;10.028;2023-02-28T10:58:31;91892.50;;;-1.54;74.72
63493;BME280;49638;47.526;10.028;2023-02-28T11:04:35;91865.16;;;-1.65;74.88
63493;BME280;49638;47.526;10.028;2023-02-28T11:07:37;91884.25;;;-1.58;74.84
63493;BME280;49638;47.526;10.028;2023-02-28T11:10:39;91886.88;;;-1.66;75.20
63493;BME280;49638;47.526;10.028;2023-02-28T11:13:45;91881.22;;;-1.78;75.85
63493;BME280;49638;47.526;10.028;2023-02-28T11:16:47;91881.56;;;-1.89;75.35
63493;BME280;49638;47.526;10.028;2023-02-28T11:19:51;91889.97;;;-1.79;76.61
63493;BME280;49638;47.526;10.028;2023-02-28T11:22:54;91891.59;;;-1.70;76.57
63493;BME280;49638;47.526;10.028;2023-02-28T11:25:58;91899.19;;;-1.68;76.48
63493;BME280;49638;47.526;10.028;2023-02-28T11:29:10;91874.09;;;-1.76;74.97
63493;BME280;49638;47.526;10.028;2023-02-28T11:35:36;91878.56;;;-1.53;75.55
63493;BME280;49638;47.526;10.028;2023-02-28T11:38:38;91876.75;;;-1.45;76.50
63493;BME280;49638;47.526;10.028;2023-02-28T11:48:56;91883.25;;;-1.57;73.45
63493;BME280;49638;47.526;10.028;2023-02-28T11:51:59;91888.78;;;-1.60;75.19
63493;BME280;49638;47.526;10.028;2023-02-28T11:55:17;91882.66;;;-1.67;73.46
63493;BME280;49638;47.526;10.028;2023-02-28T11:58:32;91886.41;;;-1.70;74.17
63493;BME280;49638;47.526;10.028;2023-02-28T12:02:17;91886.22;;;-1.68;73.30
63493;BME280;49638;47.526;10.028;2023-02-28T12:05:44;91870.38;;;-1.81;73.48
63493;BME280;49638;47.526;10.028;2023-02-28T12:12:23;91879.25;;;-1.68;74.44
63493;BME280;49638;47.526;10.028;2023-02-28T12:19:05;91876.16;;;-1.55;74.24
63493;BME280;49638;47.526;10.028;2023-02-28T12:28:25;91875.00;;;-1.52;73.91
63493;BME280;49638;47.526;10.028;2023-02-28T12:31:30;91880.19;;;-1.52;74.01
63493;BME280;49638;47.526;10.028;2023-02-28T12:34:42;91883.44;;;-1.58;73.65
63493;BME280;49638;47.526;10.028;2023-02-28T12:37:53;91878.41;;;-1.60;74.04
63493;BME280;49638;47.526;10.028;2023-02-28T12:41:00;91886.28;;;-1.37;73.51
63493;BME280;49638;47.526;10.028;2023-02-28T12:44:07;91882.69;;;-1.28;73.90
63493;BME280;49638;47.526;10.028;2023-02-28T12:47:14;91878.97;;;-1.25;73.69
63493;BME280;49638;47.526;10.028;2023-02-28T12:50:15;91878.91;;;-1.17;74.15
63493;BME280;49638;47.526;10.028;2023-02-28T12:53:32;91850.44;;;-1.25;72.76
63493;BME280;49638;47.526;10.028;2023-02-28T12:56:38;91864.13;;;-1.08;74.12
63493;BME280;49638;47.526;10.028;2023-02-28T12:59:49;91858.09;;;-1.01;73.35
63493;BME280;49638;47.526;10.028;2023-02-28T13:09:23;91847.03;;;-0.94;74.41
63493;BME280;49638;47.526;10.028;2023-02-28T13:12:25;91860.41;;;-0.83;73.89
63493;BME280;49638;47.526;10.028;2023-02-28T13:15:27;91863.88;;;-0.90;73.26
63493;BME280;49638;47.526;10.028;2023-02-28T13:18:35;91862.72;;;-0.88;72.20
63493;BME280;49638;47.526;10.028;2023-02-28T13:21:43;91861.34;;;-0.76;72.89
63493;BME280;49638;47.526;10.028;2023-02-28T13:24:50;91867.22;;;-0.59;72.58
63493;BME280;49638;47.526;10.028;2023-02-28T13:27:55;91875.03;;;-0.59;73.11
63493;BME280;49638;47.526;10.028;2023-02-28T13:31:04;91877.28;;;-0.56;73.07
63493;BME280;49638;47.526;10.028;2023-02-28T13:34:13;91874.00;;;-0.50;73.12
63493;BME280;49638;47.526;10.028;2023-02-28T13:40:30;91870.41;;;-0.49;73.26
63493;BME280;49638;47.526;10.028;2023-02-28T13:44:05;91877.38;;;-0.49;72.70
63493;BME280;49638;47.526;10.028;2023-02-28T13:53:48;91881.13;;;-0.52;71.09
63493;BME280;49638;47.526;10.028;2023-02-28T14:06:29;91878.44;;;-0.81;73.67
63493;BME280;49638;47.526;10.028;2023-02-28T14:09:37;91880.63;;;-0.70;74.71
63493;BME280;49638;47.526;10.028;2023-02-28T14:16:05;91888.47;;;-0.55;74.53
63493;BME280;49638;47.526;10.028;2023-02-28T14:19:13;91893.09;;;-0.42;73.64
63493;BME280;49638;47.526;10.028;2023-02-28T14:22:44;91892.75;;;-0.39;74.39
63493;BME280;49638;47.526;10.028;2023-02-28T14:29:37;91895.56;;;-0.26;73.41
63493;BME280;49638;47.526;10.028;2023-02-28T14:32:54;91898.97;;;-0.26;74.96
63493;BME280;49638;47.526;10.028;2023-02-28T14:39:22;91902.94;;;-0.38;74.72
63493;BME280;49638;47.526;10.028;2023-02-28T14:42:34;91905.50;;;-0.30;75.38
63493;BME280;49638;47.526;10.028;2023-02-28T14:45:37;91906.56;;;-0.24;75.75
63493;BME280;49638;47.526;10.028;2023-02-28T14:48:38;91898.66;;;-0.31;76.19
63493;BME280;49638;47.526;10.028;2023-02-28T14:51:39;91893.72;;;-0.40;76.04
63493;BME280;49638;47.526;10.028;2023-02-28T14:54:40;91902.38;;;-0.25;76.56
63493;BME280;49638;47.526;10.028;2023-02-28T14:57:43;91897.38;;;-0.27;76.27
63493;BME280;49638;47.526;10.028;2023-02-28T15:00:52;91902.09;;;-0.30;74.91
63493;BME280;49638;47.526;10.028;2023-02-28T15:03:59;91908.59;;;-0.34;73.92
63493;BME280;49638;47.526;10.028;2023-02-28T15:07:14;91908.38;;;-0.47;73.74
63493;BME280;49638;47.526;10.028;2023-02-28T15:13:20;91916.06;;;-0.54;76.55
63493;BME280;49638;47.526;10.028;2023-02-28T15:16:25;91925.47;;;-0.61;76.95
63493;BME280;49638;47.526;10.028;2023-02-28T15:19:34;91926.53;;;-0.70;77.01
63493;BME280;49638;47.526;10.028;2023-02-28T15:22:37;91919.56;;;-0.78;76.92
63493;BME280;49638;47.526;10.028;2023-02-28T15:25:39;91932.13;;;-0.90;77.20
63493;BME280;49638;47.526;10.028;2023-02-28T15:28:40;91942.03;;;-0.93;77.73
63493;BME280;49638;47.526;10.028;2023-02-28T15:31:46;91939.97;;;-0.98;77.47
63493;BME280;49638;47.526;10.028;2023-02-28T15:34:48;91936.44;;;-1.13;77.98
63493;BME280;49638;47.526;10.028;2023-02-28T15:41:24;91944.13;;;-1.28;77.39
63493;BME280;49638;47.526;10.028;2023-02-28T15:44:27;91932.00;;;-1.44;78.41
63493;BME280;49638;47.526;10.028;2023-02-28T15:47:30;91934.44;;;-1.42;78.68
63493;BME280;49638;47.526;10.028;2023-02-28T15:50:30;91940.25;;;-1.40;78.24
63493;BME280;49638;47.526;10.028;2023-02-28T15:54:01;91941.72;;;-1.46;77.67
63493;BME280;49638;47.526;10.028;2023-02-28T15:57:06;91948.25;;;-1.58;78.20
63493;BME280;49638;47.526;10.028;2023-02-28T16:00:13;91940.81;;;-1.70;79.17
63493;BME280;49638;47.526;10.028;2023-02-28T16:03:27;91943.72;;;-1.73;79.49
63493;BME280;49638;47.526;10.028;2023-02-28T16:09:28;91944.88;;;-1.83;79.39
63493;BME280;49638;47.526;10.028;2023-02-28T16:12:33;91933.88;;;-1.94;79.84
63493;BME280;49638;47.526;10.028;2023-02-28T16:15:37;91937.91;;;-1.91;79.52
63493;BME280;49638;47.526;10.028;2023-02-28T16:18:42;91949.25;;;-2.00;79.63
63493;BME280;49638;47.526;10.028;2023-02-28T16:21:43;91944.06;;;-2.17;80.29
63493;BME280;49638;47.526;10.028;2023-02-28T16:24:43;91955.06;;;-2.15;79.98
63493;BME280;49638;47.526;10.028;2023-02-28T16:27:45;91949.56;;;-2.28;80.53
63493;BME280;49638;47.526;10.028;2023-02-28T16:30:46;91940.66;;;-2.25;80.67
63493;BME280;49638;47.526;10.028;2023-02-28T16:33:47;91958.97;;;-2.19;80.30
63493;BME280;49638;47.526;10.028;2023-02-28T16:36:48;91963.50;;;-2.21;80.62
63493;BME280;49638;47.526;10.028;2023-02-28T16:39:49;91956.69;;;-2.22;80.77
63493;BME280;49638;47.526;10.028;2023-02-28T16:42:53;91964.78;;;-2.25;80.83
63493;BME280;49638;47.526;10.028;2023-02-28T16:45:56;91954.56;;;-2.34;81.45
63493;BME280;49638;47.526;10.028;2023-02-28T16:48:58;91961.06;;;-2.30;81.46
63493;BME280;49638;47.526;10.028;2023-02-28T16:51:58;91960.72;;;-2.35;81.54
63493;BME280;49638;47.526;10.028;2023-02-28T16:54:58;91944.22;;;-2.43;81.91
63493;BME280;49638;47.526;10.028;2023-02-28T16:58:00;91961.19;;;-2.48;82.44
63493;BME280;49638;47.526;10.028;2023-02-28T17:01:02;91958.59;;;-2.48;82.14
63493;BME280;49638;47.526;10.028;2023-02-28T17:04:03;91966.03;;;-2.53;82.60
63493;BME280;49638;47.526;10.028;2023-02-28T17:07:03;91963.75;;;-2.56;82.55
63493;BME280;49638;47.526;10.028;2023-02-28T17:10:16;91967.97;;;-2.55;82.96
63493;BME280;49638;47.526;10.028;2023-02-28T17:13:17;91962.59;;;-2.62;82.79
63493;BME280;49638;47.526;10.028;2023-02-28T17:16:32;91979.28;;;-2.56;82.59
63493;BME280;49638;47.526;10.028;2023-02-28T17:19:33;91967.47;;;-2.67;82.70
63493;BME280;49638;47.526;10.028;2023-02-28T17:22:34;91967.91;;;-2.72;82.81
63493;BME280;49638;47.526;10.028;2023-02-28T17:25:34;91975.53;;;-2.62;82.47
63493;BME280;49638;47.526;10.028;2023-02-28T17:28:35;91980.09;;;-2.64;82.65
63493;BME280;49638;47.526;10.028;2023-02-28T17:31:35;91980.84;;;-2.72;82.82
63493;BME280;49638;47.526;10.028;2023-02-28T17:34:38;91981.97;;;-2.82;83.67
63493;BME280;49638;47.526;10.028;2023-02-28T17:37:39;91982.31;;;-2.77;83.21
63493;BME280;49638;47.526;10.028;2023-02-28T17:40:39;91962.41;;;-2.85;83.56
63493;BME280;49638;47.526;10.028;2023-02-28T17:43:40;91983.44;;;-2.80;83.43